createdAt,value
2022-11-06T00:00:36.629Z,13.43
2022-11-06T00:03:05.870Z,16.90
2022-11-06T00:05:51.983Z,17.63
2022-11-06T00:08:29.484Z,12.93
2022-11-06T00:10:57.992Z,13.60
2022-11-06T00:13:26.465Z,12.50
2022-11-06T00:15:56.139Z,10.43
2022-11-06T00:18:28.159Z,9.40
2022-11-06T00:23:24.365Z,8.98
2022-11-06T00:25:56.735Z,9.43
2022-11-06T00:28:25.085Z,9.10
2022-11-06T00:31:01.343Z,8.82
2022-11-06T00:33:30.970Z,8.60
2022-11-06T00:35:59.289Z,9.63
2022-11-06T00:38:27.525Z,10.00
2022-11-06T00:40:55.727Z,10.00
2022-11-06T00:43:24.184Z,9.77
2022-11-06T00:45:52.441Z,9.68
2022-11-06T00:48:20.682Z,9.30
2022-11-06T00:50:50.277Z,8.98
2022-11-06T00:53:18.443Z,11.18
2022-11-06T00:55:46.637Z,9.63
2022-11-06T00:58:15.087Z,10.82
2022-11-06T01:00:43.428Z,10.85
2022-11-06T01:03:11.639Z,10.18
2022-11-06T01:05:39.829Z,10.50
2022-11-06T01:08:09.429Z,11.75
2022-11-06T01:10:38.516Z,10.82
2022-11-06T01:13:06.707Z,11.20
2022-11-06T01:15:37.504Z,10.73
2022-11-06T01:18:05.912Z,10.77
2022-11-06T01:20:34.081Z,11.13
2022-11-06T01:23:02.252Z,12.48
2022-11-06T01:25:31.858Z,11.50
2022-11-06T01:28:00.013Z,11.50
2022-11-06T01:30:28.224Z,12.05
2022-11-06T01:32:56.596Z,10.90
2022-11-06T01:35:25.004Z,11.82
2022-11-06T01:37:53.215Z,10.82
2022-11-06T01:40:21.370Z,11.13
2022-11-06T01:42:50.921Z,11.10
2022-11-06T01:45:27.563Z,11.18
2022-11-06T01:47:55.993Z,11.60
2022-11-06T01:50:24.672Z,11.25
2022-11-06T01:52:53.624Z,11.45
2022-11-06T01:55:26.916Z,12.05
2022-11-06T01:57:58.303Z,11.80
2022-11-06T02:00:27.601Z,11.10
2022-11-06T02:02:55.992Z,11.00
2022-11-06T02:05:24.724Z,11.95
2022-11-06T02:07:54.420Z,11.95
2022-11-06T02:10:22.866Z,12.68
2022-11-06T02:13:02.274Z,10.10
2022-11-06T02:15:41.419Z,11.40
2022-11-06T02:18:22.960Z,3.25
2022-11-06T02:21:06.495Z,9.45
2022-11-06T02:23:50.847Z,12.10
2022-11-06T02:26:34.909Z,11.10
2022-11-06T02:29:09.163Z,10.85
2022-11-06T02:31:40.750Z,10.10
2022-11-06T02:34:13.504Z,9.57
2022-11-06T02:36:47.227Z,10.02
2022-11-06T02:39:18.064Z,8.80
2022-11-06T02:41:49.025Z,8.93
2022-11-06T02:44:23.448Z,8.90
2022-11-06T02:46:54.916Z,9.45
2022-11-06T02:49:28.036Z,9.60
2022-11-06T02:52:00.384Z,10.07
2022-11-06T02:54:31.348Z,9.52
2022-11-06T02:57:05.265Z,10.10
2022-11-06T02:59:42.996Z,10.75
2022-11-06T03:02:16.956Z,10.32
2022-11-06T03:04:49.324Z,10.55
2022-11-06T03:07:22.749Z,10.10
2022-11-06T03:09:51.400Z,9.85
2022-11-06T03:12:26.432Z,9.75
2022-11-06T03:14:59.812Z,9.88
2022-11-06T03:17:40.943Z,9.50
2022-11-06T03:20:19.134Z,8.93
2022-11-06T03:22:53.984Z,9.13
2022-11-06T03:25:26.641Z,9.65
2022-11-06T03:28:02.807Z,9.80
2022-11-06T03:30:36.556Z,10.77
2022-11-06T03:33:10.752Z,10.60
2022-11-06T03:35:44.929Z,9.98
2022-11-06T03:38:18.453Z,10.00
2022-11-06T03:40:50.897Z,10.70
2022-11-06T03:43:24.628Z,10.43
2022-11-06T03:45:54.914Z,11.80
2022-11-06T03:48:31.018Z,10.05
2022-11-06T03:51:06.419Z,10.90
2022-11-06T03:53:42.638Z,10.00
2022-11-06T03:56:14.957Z,10.82
2022-11-06T03:58:47.122Z,11.60
2022-11-06T04:01:20.532Z,9.80
2022-11-06T04:03:55.632Z,10.10
2022-11-06T04:06:28.343Z,10.50
2022-11-06T04:09:17.907Z,9.98
2022-11-06T04:12:05.503Z,11.15
2022-11-06T04:14:36.349Z,10.65
2022-11-06T04:17:10.114Z,10.40
2022-11-06T04:19:38.504Z,12.18
2022-11-06T04:22:26.160Z,11.43
2022-11-06T04:25:28.264Z,10.10
2022-11-06T04:28:10.025Z,10.05
2022-11-06T04:30:45.700Z,9.68
2022-11-06T04:33:23.241Z,10.80
2022-11-06T04:36:01.066Z,10.30
2022-11-06T04:38:36.729Z,10.32
2022-11-06T04:41:15.885Z,11.07
2022-11-06T04:43:49.277Z,11.18
2022-11-06T04:46:22.177Z,10.30
2022-11-06T04:48:52.432Z,9.65
2022-11-06T04:51:25.314Z,10.00
2022-11-06T04:53:54.537Z,9.35
2022-11-06T04:56:29.279Z,9.82
2022-11-06T04:58:58.085Z,9.50
2022-11-06T05:01:26.830Z,10.57
2022-11-06T05:03:56.593Z,9.48
2022-11-06T05:06:29.759Z,10.48
2022-11-06T05:08:59.104Z,11.00
2022-11-06T05:11:27.280Z,10.27
2022-11-06T05:13:57.180Z,11.07
2022-11-06T05:16:25.351Z,11.35
2022-11-06T05:18:53.559Z,11.23
2022-11-06T05:21:40.665Z,11.25
2022-11-06T05:24:09.725Z,11.50
2022-11-06T05:26:37.879Z,11.85
2022-11-06T05:29:06.178Z,12.48
2022-11-06T05:31:34.467Z,12.05
2022-11-06T05:34:02.643Z,11.80
2022-11-06T05:36:32.259Z,12.30
2022-11-06T05:39:00.508Z,12.07
2022-11-06T05:41:28.713Z,12.00
2022-11-06T05:43:57.607Z,12.88
2022-11-06T05:46:50.375Z,12.45
2022-11-06T05:49:14.188Z,11.85
2022-11-06T05:51:43.754Z,12.00
2022-11-06T05:54:11.923Z,13.23
2022-11-06T05:56:40.124Z,12.85
2022-11-06T05:59:08.312Z,12.65
2022-11-06T06:01:36.665Z,11.93
2022-11-06T06:04:04.994Z,12.15
2022-11-06T06:06:33.378Z,12.57
2022-11-06T06:09:02.934Z,14.32
2022-11-06T06:11:31.169Z,12.95
2022-11-06T06:13:59.312Z,13.98
2022-11-06T06:16:27.514Z,14.45
2022-11-06T06:18:55.696Z,13.10
2022-11-06T06:21:23.927Z,12.20
2022-11-06T06:23:52.121Z,11.68
2022-11-06T06:26:21.704Z,11.75
2022-11-06T06:28:50.500Z,11.65
2022-11-06T06:31:19.014Z,12.10
2022-11-06T06:33:47.216Z,12.55
2022-11-06T06:36:15.373Z,12.20
2022-11-06T06:38:43.536Z,12.50
2022-11-06T06:41:11.983Z,13.35
2022-11-06T06:43:41.609Z,12.85
2022-11-06T06:46:09.817Z,12.60
2022-11-06T06:48:38.007Z,12.07
2022-11-06T06:51:07.911Z,12.88
2022-11-06T06:53:36.786Z,13.52
2022-11-06T06:56:05.904Z,11.70
2022-11-06T06:58:34.709Z,13.18
2022-11-06T07:01:05.681Z,11.88
2022-11-06T07:03:34.067Z,12.07
2022-11-06T07:06:02.263Z,12.82
2022-11-06T07:08:31.118Z,12.07
2022-11-06T07:11:03.081Z,12.55
2022-11-06T07:16:06.218Z,11.60
2022-11-06T07:18:34.612Z,11.75
2022-11-06T07:21:05.292Z,12.30
2022-11-06T07:23:33.658Z,12.45
2022-11-06T07:26:02.110Z,11.50
2022-11-06T07:28:30.287Z,11.23
2022-11-06T07:31:00.093Z,11.55
2022-11-06T07:33:30.168Z,10.05
2022-11-06T07:36:03.243Z,10.50
2022-11-06T07:38:31.428Z,9.75
2022-11-06T07:41:03.363Z,8.70
2022-11-06T07:46:01.668Z,8.73
2022-11-06T07:48:32.085Z,9.20
2022-11-06T07:51:03.075Z,10.18
2022-11-06T07:53:31.259Z,10.93
2022-11-06T07:55:59.661Z,10.88
2022-11-06T07:58:28.510Z,9.80
2022-11-06T08:00:58.457Z,11.10
2022-11-06T08:03:29.939Z,10.13
2022-11-06T08:06:00.068Z,10.75
2022-11-06T08:08:29.477Z,10.73
2022-11-06T08:10:57.935Z,9.52
2022-11-06T08:13:26.562Z,10.07
2022-11-06T08:15:54.725Z,10.52
2022-11-06T08:18:22.877Z,10.57
2022-11-06T08:20:55.008Z,10.15
2022-11-06T08:23:24.591Z,10.95
2022-11-06T08:25:55.414Z,11.60
2022-11-06T08:28:23.743Z,11.48
2022-11-06T08:30:51.946Z,11.32
2022-11-06T08:33:21.915Z,10.50
2022-11-06T08:35:50.357Z,11.20
2022-11-06T08:38:18.685Z,11.07
2022-11-06T08:40:53.192Z,11.07
2022-11-06T08:43:24.264Z,10.57
2022-11-06T08:45:52.476Z,10.38
2022-11-06T08:48:20.883Z,10.73
2022-11-06T08:50:49.073Z,11.25
2022-11-06T08:53:17.779Z,11.02
2022-11-06T08:55:47.953Z,10.35
2022-11-06T08:58:16.133Z,10.23
2022-11-06T09:00:44.632Z,11.05
2022-11-06T09:03:16.020Z,10.15
2022-11-06T09:05:45.128Z,10.30
2022-11-06T09:08:14.345Z,10.40
2022-11-06T09:10:43.554Z,9.60
2022-11-06T09:13:13.828Z,10.70
2022-11-06T09:15:42.333Z,9.52
2022-11-06T09:18:11.988Z,9.43
2022-11-06T09:20:40.728Z,9.48
2022-11-06T09:23:10.797Z,9.32
2022-11-06T09:25:39.272Z,8.35
2022-11-06T09:28:07.480Z,8.25
2022-11-06T09:30:37.243Z,7.28
2022-11-06T09:33:10.594Z,8.10
2022-11-06T09:35:41.675Z,13.48
2022-11-06T09:38:13.166Z,85.20
2022-11-06T09:40:47.589Z,53.58
2022-11-06T09:44:02.977Z,14.88
2022-11-06T09:46:25.734Z,8.25
2022-11-06T09:49:00.772Z,8.48
2022-11-06T09:51:38.400Z,17.85
2022-11-06T09:54:13.095Z,19.02
2022-11-06T09:56:43.492Z,18.80
2022-11-06T09:59:15.687Z,18.80
2022-11-06T10:01:49.285Z,17.17
2022-11-06T10:04:30.947Z,29.20
2022-11-06T10:06:59.488Z,21.80
2022-11-06T10:09:27.672Z,22.98
2022-11-06T10:12:08.404Z,17.23
2022-11-06T10:14:57.730Z,11.00
2022-11-06T10:17:39.548Z,9.65
2022-11-06T10:20:23.672Z,7.90
2022-11-06T10:23:05.211Z,7.53
2022-11-06T10:25:46.019Z,7.07
2022-11-06T10:28:32.357Z,7.35
2022-11-06T10:31:09.812Z,7.60
2022-11-06T10:33:54.060Z,6.30
2022-11-06T10:36:25.760Z,5.72
2022-11-06T10:38:55.497Z,6.50
2022-11-06T10:41:26.934Z,5.70
2022-11-06T10:43:58.853Z,6.00
2022-11-06T10:49:12.298Z,5.57
2022-11-06T10:51:59.618Z,5.20
2022-11-06T10:54:39.608Z,5.75
2022-11-06T10:57:22.089Z,5.03
2022-11-06T10:59:50.945Z,5.00
2022-11-06T11:02:29.368Z,4.88
2022-11-06T11:04:59.037Z,4.43
2022-11-06T11:07:30.646Z,4.50
2022-11-06T11:09:58.891Z,4.40
2022-11-06T11:12:30.541Z,4.70
2022-11-06T11:15:11.803Z,4.53
2022-11-06T11:17:40.936Z,4.70
2022-11-06T11:23:18.919Z,4.68
2022-11-06T11:25:49.526Z,4.50
2022-11-06T11:28:29.279Z,4.65
2022-11-06T11:31:05.503Z,4.45
2022-11-06T11:33:34.547Z,4.25
2022-11-06T11:36:04.792Z,4.22
2022-11-06T11:38:37.323Z,4.63
2022-11-06T11:41:12.508Z,4.93
2022-11-06T11:43:42.012Z,3.75
2022-11-06T11:46:21.323Z,4.38
2022-11-06T11:48:51.723Z,3.67
2022-11-06T11:51:36.402Z,3.97
2022-11-06T11:54:17.580Z,4.00
2022-11-06T11:57:05.768Z,3.60
2022-11-06T11:59:39.335Z,3.75
2022-11-06T12:02:20.848Z,4.20
2022-11-06T12:04:55.577Z,3.53
2022-11-06T12:07:29.834Z,3.80
2022-11-06T12:10:01.040Z,11.80
2022-11-06T12:12:33.219Z,9.75
2022-11-06T12:15:19.842Z,4.95
2022-11-06T12:17:54.004Z,3.33
2022-11-06T12:20:25.693Z,3.60
2022-11-06T12:22:57.476Z,5.32
2022-11-06T12:25:30.648Z,13.45
2022-11-06T12:28:01.946Z,7.25
2022-11-06T12:30:33.076Z,13.52
2022-11-06T12:33:06.113Z,23.23
2022-11-06T12:35:39.160Z,34.25
2022-11-06T12:38:14.024Z,31.02
2022-11-06T12:40:49.342Z,15.20
2022-11-06T12:43:26.520Z,16.67
2022-11-06T12:46:08.313Z,7.25
2022-11-06T12:49:00.282Z,8.00
2022-11-06T12:51:41.720Z,3.97
2022-11-06T12:54:20.640Z,2.58
2022-11-06T12:56:57.290Z,2.78
2022-11-06T12:59:38.545Z,2.83
2022-11-06T13:02:23.253Z,2.63
2022-11-06T13:04:57.705Z,2.53
2022-11-06T13:07:48.316Z,2.28
2022-11-06T13:10:27.533Z,2.47
2022-11-06T13:13:14.092Z,3.05
2022-11-06T13:15:50.831Z,2.50
2022-11-06T13:18:24.780Z,2.47
2022-11-06T13:20:58.599Z,2.80
2022-11-06T13:23:30.695Z,2.58
2022-11-06T13:26:07.819Z,2.67
2022-11-06T13:28:41.612Z,2.60
2022-11-06T13:31:13.423Z,2.30
2022-11-06T13:33:47.300Z,2.78
2022-11-06T13:36:15.927Z,2.50
2022-11-06T13:38:52.542Z,2.30
2022-11-06T13:41:23.371Z,2.30
2022-11-06T13:43:58.015Z,2.38
2022-11-06T13:46:32.720Z,2.13
2022-11-06T13:49:11.468Z,1.90
2022-11-06T13:51:47.344Z,2.63
2022-11-06T13:54:27.432Z,2.22
2022-11-06T13:57:36.109Z,2.53
2022-11-06T14:00:20.994Z,2.00
2022-11-06T14:03:40.446Z,1.92
2022-11-06T14:06:15.296Z,2.50
2022-11-06T14:08:47.418Z,2.67
2022-11-06T14:11:18.467Z,4.00
2022-11-06T14:13:59.869Z,2.20
2022-11-06T14:16:32.466Z,2.15
2022-11-06T14:19:14.753Z,2.20
2022-11-06T14:21:48.756Z,2.03
2022-11-06T14:24:29.489Z,2.85
2022-11-06T14:26:58.185Z,1.83
2022-11-06T14:29:57.578Z,2.30
2022-11-06T14:32:52.730Z,2.03
2022-11-06T14:35:54.206Z,1.98
2022-11-06T14:38:37.836Z,2.30
2022-11-06T14:41:48.195Z,2.00
2022-11-06T14:44:35.801Z,2.03
2022-11-06T14:47:07.261Z,1.75
2022-11-06T14:49:42.080Z,1.95
2022-11-06T14:52:13.257Z,1.73
2022-11-06T14:54:50.530Z,1.63
2022-11-06T14:57:34.688Z,1.50
2022-11-06T15:00:03.076Z,1.77
2022-11-06T15:02:34.436Z,1.75
2022-11-06T15:05:08.157Z,1.77
2022-11-06T15:08:15.006Z,1.30
2022-11-06T15:10:55.040Z,2.10
2022-11-06T15:13:33.566Z,1.58
2022-11-06T15:16:13.978Z,2.00
2022-11-06T15:18:45.660Z,3.75
2022-11-06T15:21:24.200Z,2.63
2022-11-06T15:24:03.886Z,1.88
2022-11-06T15:26:38.899Z,1.27
2022-11-06T15:29:18.291Z,1.90
2022-11-06T15:31:50.108Z,1.50
2022-11-06T15:34:24.031Z,1.95
2022-11-06T15:36:57.748Z,2.03
2022-11-06T15:39:39.244Z,1.60
2022-11-06T15:42:09.629Z,2.10
2022-11-06T15:44:42.032Z,1.80
2022-11-06T15:47:21.995Z,1.92
2022-11-06T15:49:50.401Z,1.83
2022-11-06T15:52:20.131Z,2.13
2022-11-06T15:54:49.440Z,2.22
2022-11-06T15:57:22.414Z,1.70
2022-11-06T15:59:52.221Z,1.92
2022-11-06T16:02:22.429Z,2.20
2022-11-06T16:04:51.702Z,2.00
2022-11-06T16:07:21.762Z,1.90
2022-11-06T16:09:52.202Z,2.15
2022-11-06T16:12:20.564Z,2.00
2022-11-06T16:14:48.811Z,2.08
2022-11-06T16:17:23.567Z,2.50
2022-11-06T16:19:53.302Z,2.55
2022-11-06T16:22:29.875Z,2.60
2022-11-06T16:25:01.057Z,2.35
2022-11-06T16:27:33.808Z,2.40
2022-11-06T16:30:03.172Z,2.60
2022-11-06T16:32:33.539Z,2.70
2022-11-06T16:35:01.725Z,2.50
2022-11-06T16:37:40.874Z,2.42
2022-11-06T16:40:52.570Z,2.88
2022-11-06T16:43:23.172Z,3.10
2022-11-06T16:45:57.336Z,3.00
2022-11-06T16:48:31.639Z,3.58
2022-11-06T16:51:01.638Z,3.42
2022-11-06T16:53:33.287Z,4.68
2022-11-06T16:56:03.546Z,3.88
2022-11-06T16:58:35.806Z,3.95
2022-11-06T17:01:06.989Z,3.83
2022-11-06T17:03:41.239Z,4.00
2022-11-06T17:06:21.902Z,3.65
2022-11-06T17:09:09.708Z,4.00
2022-11-06T17:11:38.850Z,4.32
2022-11-06T17:14:19.941Z,4.10
2022-11-06T17:16:50.678Z,5.22
2022-11-06T17:19:19.480Z,5.00
2022-11-06T17:21:47.742Z,4.85
2022-11-06T17:24:36.088Z,5.03
2022-11-06T17:27:05.582Z,4.78
2022-11-06T17:29:36.226Z,4.70
2022-11-06T17:32:04.823Z,5.85
2022-11-06T17:34:32.984Z,4.90
2022-11-06T17:37:01.191Z,4.40
2022-11-06T17:39:31.836Z,5.18
2022-11-06T17:42:00.233Z,5.25
2022-11-06T17:44:28.408Z,4.80
2022-11-06T17:46:56.569Z,5.22
2022-11-06T17:49:24.770Z,5.47
2022-11-06T17:51:59.701Z,6.18
2022-11-06T17:54:32.316Z,6.35
2022-11-06T17:57:02.391Z,5.25
2022-11-06T17:59:30.915Z,4.80
2022-11-06T18:01:59.667Z,5.13
2022-11-06T18:04:31.371Z,5.00
2022-11-06T18:06:59.560Z,5.50
2022-11-06T18:09:28.093Z,5.00
2022-11-06T18:11:57.761Z,5.25
2022-11-06T18:14:27.451Z,5.05
2022-11-06T18:16:55.778Z,5.28
2022-11-06T18:19:25.371Z,4.93
2022-11-06T18:21:54.432Z,5.50
2022-11-06T18:24:22.665Z,4.97
2022-11-06T18:26:50.824Z,5.18
2022-11-06T18:29:20.751Z,5.57
2022-11-06T18:31:48.944Z,5.32
2022-11-06T18:34:21.166Z,4.95
2022-11-06T18:36:50.470Z,5.70
2022-11-06T18:39:19.420Z,5.43
2022-11-06T18:41:47.688Z,5.65
2022-11-06T18:44:17.779Z,5.20
2022-11-06T18:46:47.658Z,5.45
2022-11-06T18:49:15.998Z,6.13
2022-11-06T18:51:44.386Z,6.57
2022-11-06T18:54:13.529Z,5.47
2022-11-06T18:56:41.729Z,6.25
2022-11-06T18:59:15.204Z,6.55
2022-11-06T19:01:43.544Z,6.13
2022-11-06T19:04:13.283Z,5.55
2022-11-06T19:06:41.656Z,6.00
2022-11-06T19:09:10.906Z,6.05
2022-11-06T19:11:39.565Z,14.48
2022-11-06T19:14:07.996Z,16.45
2022-11-06T19:16:36.448Z,15.15
2022-11-06T19:19:05.754Z,24.42
2022-11-06T19:21:36.368Z,18.02
2022-11-06T19:24:05.828Z,12.65
2022-11-06T19:26:35.505Z,7.78
2022-11-06T19:29:03.781Z,6.55
2022-11-06T19:31:33.763Z,6.45
2022-11-06T19:34:03.380Z,6.00
2022-11-06T19:36:32.543Z,7.85
2022-11-06T19:39:02.279Z,9.43
2022-11-06T19:41:30.598Z,7.22
2022-11-06T19:43:58.802Z,6.80
2022-11-06T19:46:32.372Z,6.72
2022-11-06T19:49:03.759Z,7.00
2022-11-06T19:51:33.175Z,5.97
2022-11-06T19:54:02.809Z,7.13
2022-11-06T19:56:31.076Z,7.05
2022-11-06T19:59:00.059Z,7.35
2022-11-06T20:01:28.373Z,8.10
2022-11-06T20:03:56.831Z,5.90
2022-11-06T20:06:27.336Z,6.00
2022-11-06T20:08:55.651Z,6.53
2022-11-06T20:11:25.221Z,6.22
2022-11-06T20:13:53.450Z,5.80
2022-11-06T20:16:22.008Z,6.45
2022-11-06T20:18:53.993Z,6.30
2022-11-06T20:23:51.163Z,5.82
2022-11-06T20:26:19.869Z,6.25
2022-11-06T20:28:49.987Z,5.88
2022-11-06T20:31:20.266Z,8.02
2022-11-06T20:33:48.766Z,10.23
2022-11-06T20:36:20.560Z,6.32
2022-11-06T20:38:48.842Z,6.10
2022-11-06T20:41:18.422Z,5.70
2022-11-06T20:43:46.617Z,6.20
2022-11-06T20:46:17.888Z,6.80
2022-11-06T20:48:47.029Z,6.85
2022-11-06T20:51:16.896Z,7.78
2022-11-06T20:53:45.682Z,6.47
2022-11-06T20:56:15.514Z,6.35
2022-11-06T20:58:43.982Z,6.32
2022-11-06T21:01:14.951Z,7.07
2022-11-06T21:03:44.982Z,6.07
2022-11-06T21:06:13.720Z,5.22
2022-11-06T21:08:42.823Z,5.25
2022-11-06T21:11:13.512Z,5.03
2022-11-06T21:13:42.492Z,5.50
2022-11-06T21:16:14.093Z,5.55
2022-11-06T21:18:44.299Z,5.07
2022-11-06T21:21:14.732Z,6.30
2022-11-06T21:23:43.161Z,30.00
2022-11-06T21:26:13.579Z,21.20
2022-11-06T21:28:43.531Z,11.75
2022-11-06T21:31:13.332Z,12.88
2022-11-06T21:33:41.928Z,8.27
2022-11-06T21:36:13.499Z,9.13
2022-11-06T21:38:42.093Z,12.00
2022-11-06T21:41:13.221Z,10.73
2022-11-06T21:43:41.913Z,8.67
2022-11-06T21:46:12.458Z,9.43
2022-11-06T21:48:46.752Z,10.05
2022-11-06T21:51:19.374Z,7.18
2022-11-06T21:54:11.237Z,8.63
2022-11-06T21:56:41.177Z,6.32
2022-11-06T21:59:11.168Z,4.28
2022-11-06T22:01:40.120Z,4.15
2022-11-06T22:04:08.927Z,3.45
2022-11-06T22:06:42.073Z,3.70
2022-11-06T22:09:11.493Z,3.97
2022-11-06T22:11:41.604Z,3.30
2022-11-06T22:14:13.520Z,3.60
2022-11-06T22:19:11.699Z,3.00
2022-11-06T22:21:41.727Z,3.20
2022-11-06T22:24:12.850Z,2.67
2022-11-06T22:26:41.212Z,2.93
2022-11-06T22:29:11.805Z,2.75
2022-11-06T22:31:40.220Z,2.70
2022-11-06T22:34:08.429Z,2.75
2022-11-06T22:36:38.097Z,3.33
2022-11-06T22:39:10.278Z,2.80
2022-11-06T22:41:39.407Z,2.53
2022-11-06T22:44:08.668Z,3.15
2022-11-06T22:46:37.011Z,2.65
2022-11-06T22:49:06.627Z,2.60
2022-11-06T22:51:35.587Z,2.60
2022-11-06T22:54:04.793Z,2.65
2022-11-06T22:56:34.867Z,2.30
2022-11-06T22:59:04.766Z,2.88
2022-11-06T23:01:41.217Z,2.90
2022-11-06T23:04:15.080Z,2.35
2022-11-06T23:06:44.282Z,2.35
2022-11-06T23:09:13.104Z,2.42
2022-11-06T23:11:45.548Z,2.67
2022-11-06T23:14:13.705Z,2.75
2022-11-06T23:17:01.238Z,3.00
2022-11-06T23:19:31.125Z,2.00
2022-11-06T23:22:17.195Z,2.97
2022-11-06T23:24:45.723Z,2.35
2022-11-06T23:27:15.412Z,2.53
2022-11-06T23:29:43.611Z,2.00
2022-11-06T23:32:11.783Z,2.40
2022-11-06T23:34:39.980Z,2.33
2022-11-06T23:37:08.997Z,2.78
2022-11-06T23:39:37.177Z,2.72
2022-11-06T23:42:05.647Z,2.30
2022-11-06T23:44:52.482Z,17.05
2022-11-06T23:47:20.632Z,8.23
2022-11-06T23:49:49.013Z,13.60
2022-11-06T23:52:17.218Z,13.90
2022-11-06T23:54:45.398Z,12.90
2022-11-06T23:57:14.280Z,10.13
2022-11-06T23:59:43.953Z,3.95
